Time,TemperatureF,DewpointF,PressureIn,WindDirection,WindDirectionDegrees,WindSpeedMPH,WindSpeedGustMPH,Humidity,HourlyPrecipIn,Conditions,Clouds,dailyrainin,SoftwareType,DateUTC
2013-03-22 00:02:00,69.0,27.0,29.76,NW,305,8.0,19.0,21,-99.99,,,-99.99,,2013-03-22 06:02:00,
2013-03-22 00:12:00,69.0,27.0,29.76,NW,305,8.0,19.0,21,-99.99,,,-99.99,,2013-03-22 06:12:00,
2013-03-22 00:22:00,69.0,29.0,29.77,NW,312,6.0,10.0,22,-99.99,,,-99.99,,2013-03-22 06:22:00,
2013-03-22 00:32:00,69.0,29.0,29.77,WNW,301,6.0,11.0,22,-99.99,,,-99.99,,2013-03-22 06:32:00,
2013-03-22 00:42:00,69.0,29.0,29.77,WNW,301,6.0,11.0,22,-99.99,,,-99.99,,2013-03-22 06:42:00,
2013-03-22 00:52:00,68.0,30.0,29.77,North,0,0.0,0.0,24,-99.99,,,-99.99,,2013-03-22 06:52:00,
2013-03-22 01:02:00,67.0,31.0,29.77,North,0,0.0,0.0,26,-99.99,,,-99.99,,2013-03-22 07:02:00,
2013-03-22 01:12:00,67.0,31.0,29.77,North,0,0.0,0.0,26,-99.99,,,-99.99,,2013-03-22 07:12:00,
2013-03-22 01:22:00,65.0,31.0,29.77,North,0,0.0,0.0,28,-99.99,,,-99.99,,2013-03-22 07:22:00,
2013-03-22 01:32:00,64.0,31.0,29.77,North,0,0.0,0.0,29,-99.99,,,-99.99,,2013-03-22 07:32:00,
2013-03-22 01:42:00,64.0,31.0,29.77,North,0,0.0,0.0,29,-99.99,,,-99.99,,2013-03-22 07:42:00,
2013-03-22 01:52:00,63.0,31.0,29.78,North,0,0.0,0.0,30,-99.99,,,-99.99,,2013-03-22 07:52:00,
2013-03-22 02:03:00,62.0,31.0,29.78,North,0,0.0,0.0,31,-99.99,,,-99.99,,2013-03-22 08:03:00,
2013-03-22 02:12:00,62.0,31.0,29.78,North,0,0.0,0.0,31,-99.99,,,-99.99,,2013-03-22 08:12:00,
2013-03-22 02:22:00,61.0,32.0,29.78,North,0,0.0,0.0,33,-99.99,,,-99.99,,2013-03-22 08:22:00,
2013-03-22 02:32:00,60.0,33.0,29.78,North,0,0.0,0.0,36,-99.99,,,-99.99,,2013-03-22 08:32:00,
2013-03-22 02:42:00,60.0,33.0,29.78,North,0,0.0,0.0,36,-99.99,,,-99.99,,2013-03-22 08:42:00,
2013-03-22 02:52:00,60.0,32.0,29.78,North,0,0.0,0.0,35,-99.99,,,-99.99,,2013-03-22 08:52:00,
2013-03-22 03:02:00,60.0,30.0,29.78,North,0,0.0,0.0,32,-99.99,,,-99.99,,2013-03-22 09:02:00,
2013-03-22 03:12:00,60.0,30.0,29.78,North,0,0.0,0.0,32,-99.99,,,-99.99,,2013-03-22 09:12:00,
2013-03-22 03:22:00,60.0,31.0,29.78,North,0,0.0,0.0,33,-99.99,,,-99.99,,2013-03-22 09:22:00,
2013-03-22 03:32:00,60.0,30.0,29.78,North,0,0.0,0.0,32,-99.99,,,-99.99,,2013-03-22 09:32:00,
2013-03-22 03:42:00,60.0,30.0,29.78,North,0,0.0,0.0,32,-99.99,,,-99.99,,2013-03-22 09:42:00,
2013-03-22 03:53:00,60.0,29.0,29.77,North,0,0.0,0.0,31,-99.99,,,-99.99,,2013-03-22 09:53:00,
2013-03-22 04:03:00,59.0,31.0,29.77,North,0,0.0,0.0,34,-99.99,,,-99.99,,2013-03-22 10:03:00,
2013-03-22 04:12:00,59.0,31.0,29.77,North,0,0.0,0.0,34,-99.99,,,-99.99,,2013-03-22 10:12:00,
2013-03-22 04:22:00,59.0,30.0,29.77,WSW,240,1.0,3.0,33,-99.99,,,-99.99,,2013-03-22 10:22:00,
2013-03-22 04:32:00,59.0,29.0,29.78,North,0,0.0,0.0,32,-99.99,,,-99.99,,2013-03-22 10:32:00,
2013-03-22 04:42:00,59.0,29.0,29.78,North,0,0.0,0.0,32,-99.99,,,-99.99,,2013-03-22 10:42:00,
2013-03-22 04:52:00,59.0,29.0,29.78,North,0,0.0,0.0,32,-99.99,,,-99.99,,2013-03-22 10:52:00,
2013-03-22 05:03:00,59.0,29.0,29.78,North,0,0.0,0.0,32,-99.99,,,-99.99,,2013-03-22 11:03:00,
2013-03-22 05:12:00,59.0,29.0,29.78,North,0,0.0,0.0,32,-99.99,,,-99.99,,2013-03-22 11:12:00,
2013-03-22 05:22:00,58.0,31.0,29.78,North,0,0.0,0.0,35,-99.99,,,-99.99,,2013-03-22 11:22:00,
2013-03-22 05:32:00,58.0,31.0,29.78,North,0,0.0,0.0,36,-99.99,,,-99.99,,2013-03-22 11:32:00,
2013-03-22 05:42:00,58.0,31.0,29.78,North,0,0.0,0.0,36,-99.99,,,-99.99,,2013-03-22 11:42:00,
2013-03-22 05:52:00,57.0,31.0,29.78,North,0,0.0,0.0,37,-99.99,,,-99.99,,2013-03-22 11:52:00,
2013-03-22 06:02:00,57.0,30.0,29.79,North,0,0.0,0.0,36,-99.99,,,-99.99,,2013-03-22 12:02:00,
2013-03-22 06:12:00,58.0,31.0,29.79,North,0,0.0,0.0,35,-99.99,,,-99.99,,2013-03-22 12:12:00,
2013-03-22 06:22:00,58.0,31.0,29.79,North,0,0.0,0.0,35,-99.99,,,-99.99,,2013-03-22 12:22:00,
2013-03-22 06:32:00,58.0,31.0,29.79,WNW,287,1.0,7.0,35,-99.99,,,-99.99,,2013-03-22 12:32:00,
2013-03-22 06:42:00,58.0,31.0,29.79,WNW,287,1.0,7.0,35,-99.99,,,-99.99,,2013-03-22 12:42:00,
2013-03-22 06:52:00,58.0,31.0,29.80,WSW,250,1.0,5.0,36,-99.99,,,-99.99,,2013-03-22 12:52:00,
2013-03-22 07:02:00,58.0,31.0,29.80,North,0,0.0,0.0,36,-99.99,,,-99.99,,2013-03-22 13:02:00,
2013-03-22 07:12:00,58.0,31.0,29.80,North,0,0.0,0.0,36,-99.99,,,-99.99,,2013-03-22 13:12:00,
2013-03-22 07:22:00,57.0,32.0,29.80,North,0,0.0,0.0,39,-99.99,,,-99.99,,2013-03-22 13:22:00,
2013-03-22 07:32:00,56.0,32.0,29.81,North,0,0.0,0.0,40,-99.99,,,-99.99,,2013-03-22 13:32:00,
2013-03-22 07:42:00,56.0,32.0,29.81,North,0,0.0,0.0,40,-99.99,,,-99.99,,2013-03-22 13:42:00,
2013-03-22 07:52:00,56.0,32.0,29.83,North,0,0.0,0.0,40,-99.99,,,-99.99,,2013-03-22 13:52:00,
2013-03-22 08:02:00,57.0,32.0,29.83,WNW,298,1.0,5.0,39,-99.99,,,-99.99,,2013-03-22 14:02:00,
2013-03-22 08:12:00,57.0,32.0,29.83,WNW,298,1.0,5.0,39,-99.99,,,-99.99,,2013-03-22 14:12:00,
2013-03-22 08:22:00,60.0,33.0,29.83,North,0,0.0,0.0,36,-99.99,,,-99.99,,2013-03-22 14:22:00,
2013-03-22 08:32:00,61.0,32.0,29.83,West,259,1.0,4.0,34,-99.99,,,-99.99,,2013-03-22 14:32:00,
2013-03-22 08:42:00,61.0,32.0,29.83,West,259,1.0,4.0,34,-99.99,,,-99.99,,2013-03-22 14:42:00,
2013-03-22 08:52:00,62.0,33.0,29.84,West,264,3.0,7.0,33,-99.99,,,-99.99,,2013-03-22 14:52:00,
2013-03-22 09:02:00,61.0,32.0,29.84,SSE,162,4.0,8.0,33,-99.99,,,-99.99,,2013-03-22 15:02:00,
2013-03-22 09:12:00,61.0,32.0,29.84,SSE,162,4.0,8.0,33,-99.99,,,-99.99,,2013-03-22 15:12:00,
2013-03-22 09:22:00,61.0,31.0,29.84,South,180,0.0,4.0,32,-99.99,,,-99.99,,2013-03-22 15:22:00,
2013-03-22 09:32:00,61.0,32.0,29.84,South,177,0.0,1.0,33,-99.99,,,-99.99,,2013-03-22 15:32:00,
2013-03-22 09:42:00,61.0,32.0,29.84,South,177,0.0,1.0,33,-99.99,,,-99.99,,2013-03-22 15:42:00,
2013-03-22 09:53:00,64.0,32.0,29.85,WSW,245,0.0,3.0,30,-99.99,,,-99.99,,2013-03-22 15:53:00,
2013-03-22 10:02:00,66.0,34.0,29.84,WSW,246,5.0,11.0,31,-99.99,,,-99.99,,2013-03-22 16:02:00,
2013-03-22 10:13:00,68.0,35.0,29.84,SSW,208,8.0,14.0,30,-99.99,,,-99.99,,2013-03-22 16:13:00,
2013-03-22 10:22:00,68.0,35.0,29.84,SSW,208,8.0,14.0,30,-99.99,,,-99.99,,2013-03-22 16:22:00,
2013-03-22 10:32:00,69.0,35.0,29.83,WSW,245,8.0,16.0,29,-99.99,,,-99.99,,2013-03-22 16:32:00,
2013-03-22 10:42:00,69.0,35.0,29.83,WSW,255,10.0,19.0,28,-99.99,,,-99.99,,2013-03-22 16:42:00,
2013-03-22 10:52:00,69.0,35.0,29.83,WSW,255,10.0,19.0,28,-99.99,,,-99.99,,2013-03-22 16:52:00,
2013-03-22 11:03:00,69.0,34.0,29.83,WSW,245,8.0,16.0,27,-99.99,,,-99.99,,2013-03-22 17:03:00,
2013-03-22 11:12:00,71.0,32.0,29.83,WSW,240,8.0,14.0,24,-99.99,,,-99.99,,2013-03-22 17:12:00,
2013-03-22 11:23:00,71.0,32.0,29.83,WSW,240,8.0,14.0,24,-99.99,,,-99.99,,2013-03-22 17:23:00,
2013-03-22 11:32:00,71.0,31.0,29.83,SSW,203,8.0,21.0,23,-99.99,,,-99.99,,2013-03-22 17:32:00,
2013-03-22 11:42:00,71.0,31.0,29.83,SSW,203,8.0,21.0,23,-99.99,,,-99.99,,2013-03-22 17:42:00,
2013-03-22 11:53:00,71.0,31.0,29.81,WSW,253,11.0,23.0,23,-99.99,,,-99.99,,2013-03-22 17:53:00,
2013-03-22 12:02:00,71.0,29.0,29.81,West,280,11.0,24.0,21,-99.99,,,-99.99,,2013-03-22 18:02:00,
2013-03-22 12:12:00,71.0,29.0,29.81,West,280,11.0,24.0,21,-99.99,,,-99.99,,2013-03-22 18:12:00,
2013-03-22 12:22:00,72.0,29.0,29.80,WNW,298,8.0,18.0,20,-99.99,,,-99.99,,2013-03-22 18:22:00,
2013-03-22 12:32:00,73.0,27.0,29.80,WSW,238,9.0,17.0,18,-99.99,,,-99.99,,2013-03-22 18:32:00,
2013-03-22 12:42:00,73.0,27.0,29.80,WSW,238,9.0,17.0,18,-99.99,,,-99.99,,2013-03-22 18:42:00,
2013-03-22 12:52:00,73.0,27.0,29.79,West,281,11.0,28.0,18,-99.99,,,-99.99,,2013-03-22 18:52:00,
2013-03-22 13:02:00,72.0,26.0,29.78,SSW,208,9.0,18.0,18,-99.99,,,-99.99,,2013-03-22 19:02:00,
2013-03-22 13:12:00,72.0,26.0,29.78,SSW,208,9.0,18.0,18,-99.99,,,-99.99,,2013-03-22 19:12:00,
2013-03-22 13:22:00,71.0,27.0,29.77,SSE,153,11.0,24.0,19,-99.99,,,-99.99,,2013-03-22 19:22:00,
2013-03-22 13:32:00,72.0,27.0,29.76,West,266,10.0,21.0,19,-99.99,,,-99.99,,2013-03-22 19:32:00,
2013-03-22 13:42:00,72.0,27.0,29.76,West,266,10.0,21.0,19,-99.99,,,-99.99,,2013-03-22 19:42:00,
2013-03-22 13:52:00,74.0,26.0,29.76,West,260,9.0,18.0,17,-99.99,,,-99.99,,2013-03-22 19:52:00,
2013-03-22 14:02:00,74.0,26.0,29.75,WSW,257,10.0,22.0,17,-99.99,,,-99.99,,2013-03-22 20:02:00,
2013-03-22 14:12:00,74.0,26.0,29.75,WSW,257,10.0,22.0,17,-99.99,,,-99.99,,2013-03-22 20:12:00,
2013-03-22 14:22:00,75.0,27.0,29.73,SW,221,11.0,26.0,17,-99.99,,,-99.99,,2013-03-22 20:22:00,
2013-03-22 14:32:00,74.0,28.0,29.73,West,264,10.0,20.0,18,-99.99,,,-99.99,,2013-03-22 20:32:00,
2013-03-22 14:42:00,74.0,28.0,29.73,West,264,10.0,20.0,18,-99.99,,,-99.99,,2013-03-22 20:42:00,
2013-03-22 14:52:00,75.0,29.0,29.71,West,274,11.0,22.0,18,-99.99,,,-99.99,,2013-03-22 20:52:00,
2013-03-22 15:02:00,75.0,29.0,29.70,West,266,9.0,19.0,18,-99.99,,,-99.99,,2013-03-22 21:02:00,
2013-03-22 15:12:00,75.0,30.0,29.68,West,263,8.0,17.0,19,-99.99,,,-99.99,,2013-03-22 21:12:00,
2013-03-22 15:22:00,75.0,30.0,29.68,West,263,8.0,17.0,19,-99.99,,,-99.99,,2013-03-22 21:22:00,
2013-03-22 15:32:00,75.0,30.0,29.67,WSW,256,10.0,21.0,19,-99.99,,,-99.99,,2013-03-22 21:32:00,
2013-03-22 15:42:00,75.0,30.0,29.67,WSW,256,10.0,21.0,19,-99.99,,,-99.99,,2013-03-22 21:42:00,
2013-03-22 15:53:00,78.0,31.0,29.66,SW,232,8.0,15.0,18,-99.99,,,-99.99,,2013-03-22 21:53:00,
2013-03-22 16:03:00,77.0,32.0,29.66,West,260,12.0,27.0,19,-99.99,,,-99.99,,2013-03-22 22:03:00,
2013-03-22 16:12:00,77.0,32.0,29.66,West,260,12.0,27.0,19,-99.99,,,-99.99,,2013-03-22 22:12:00,
2013-03-22 16:23:00,76.0,32.0,29.65,West,264,12.0,25.0,20,-99.99,,,-99.99,,2013-03-22 22:23:00,
2013-03-22 16:32:00,76.0,31.0,29.65,WNW,293,12.0,31.0,19,-99.99,,,-99.99,,2013-03-22 22:32:00,
2013-03-22 16:42:00,76.0,31.0,29.65,WNW,293,12.0,31.0,19,-99.99,,,-99.99,,2013-03-22 22:42:00,
2013-03-22 16:52:00,77.0,32.0,29.65,WNW,290,10.0,21.0,19,-99.99,,,-99.99,,2013-03-22 22:52:00,
2013-03-22 17:02:00,77.0,32.0,29.65,WSW,242,12.0,25.0,19,-99.99,,,-99.99,,2013-03-22 23:02:00,
2013-03-22 17:12:00,77.0,32.0,29.65,WSW,242,12.0,25.0,19,-99.99,,,-99.99,,2013-03-22 23:12:00,
2013-03-22 17:22:00,78.0,32.0,29.64,WSW,256,13.0,29.0,19,-99.99,,,-99.99,,2013-03-22 23:22:00,
2013-03-22 17:32:00,79.0,30.0,29.64,West,278,11.0,21.0,17,-99.99,,,-99.99,,2013-03-22 23:32:00,
2013-03-22 17:42:00,79.0,30.0,29.64,West,278,11.0,21.0,17,-99.99,,,-99.99,,2013-03-22 23:42:00,
2013-03-22 17:52:00,78.0,31.0,29.64,WNW,283,15.0,31.0,18,-99.99,,,-99.99,,2013-03-22 23:52:00,
2013-03-22 18:02:00,78.0,32.0,29.63,West,260,9.0,19.0,19,-99.99,,,-99.99,,2013-03-23 00:02:00,
2013-03-22 18:12:00,78.0,32.0,29.63,West,260,9.0,19.0,19,-99.99,,,-99.99,,2013-03-23 00:12:00,
2013-03-22 18:23:00,77.0,33.0,29.64,West,276,10.0,21.0,20,-99.99,,,-99.99,,2013-03-23 00:23:00,
2013-03-22 18:32:00,77.0,33.0,29.64,WNW,287,11.0,19.0,20,-99.99,,,-99.99,,2013-03-23 00:32:00,
2013-03-22 18:42:00,76.0,33.0,29.65,West,280,12.0,22.0,21,-99.99,,,-99.99,,2013-03-23 00:42:00,
2013-03-22 18:52:00,76.0,33.0,29.65,West,280,12.0,22.0,21,-99.99,,,-99.99,,2013-03-23 00:52:00,
2013-03-22 19:03:00,76.0,33.0,29.65,WNW,284,9.0,19.0,21,-99.99,,,-99.99,,2013-03-23 01:03:00,
2013-03-22 19:12:00,76.0,33.0,29.65,WNW,284,9.0,19.0,21,-99.99,,,-99.99,,2013-03-23 01:12:00,
2013-03-22 19:22:00,75.0,31.0,29.65,WSW,255,12.0,23.0,20,-99.99,,,-99.99,,2013-03-23 01:22:00,
2013-03-22 19:32:00,75.0,31.0,29.66,West,266,13.0,29.0,20,-99.99,,,-99.99,,2013-03-23 01:32:00,
2013-03-22 19:42:00,75.0,31.0,29.66,West,266,13.0,29.0,20,-99.99,,,-99.99,,2013-03-23 01:42:00,
2013-03-22 19:52:00,74.0,32.0,29.67,West,267,8.0,18.0,21,-99.99,,,-99.99,,2013-03-23 01:52:00,
2013-03-22 20:02:00,74.0,32.0,29.67,WSW,246,9.0,16.0,21,-99.99,,,-99.99,,2013-03-23 02:02:00,
2013-03-22 20:12:00,74.0,32.0,29.67,WSW,246,9.0,16.0,21,-99.99,,,-99.99,,2013-03-23 02:12:00,
2013-03-22 20:22:00,74.0,32.0,29.68,West,262,9.0,17.0,21,-99.99,,,-99.99,,2013-03-23 02:22:00,
2013-03-22 20:32:00,73.0,31.0,29.68,West,262,6.0,13.0,21,-99.99,,,-99.99,,2013-03-23 02:32:00,
2013-03-22 20:42:00,73.0,31.0,29.68,West,262,6.0,13.0,21,-99.99,,,-99.99,,2013-03-23 02:42:00,
2013-03-22 20:52:00,73.0,31.0,29.70,West,278,7.0,15.0,21,-99.99,,,-99.99,,2013-03-23 02:52:00,
2013-03-22 21:02:00,73.0,30.0,29.70,WSW,242,8.0,18.0,20,-99.99,,,-99.99,,2013-03-23 03:02:00,
2013-03-22 21:12:00,73.0,30.0,29.70,WSW,242,8.0,18.0,20,-99.99,,,-99.99,,2013-03-23 03:12:00,
2013-03-22 21:22:00,72.0,29.0,29.72,West,273,5.0,9.0,20,-99.99,,,-99.99,,2013-03-23 03:22:00,
2013-03-22 21:33:00,71.0,28.0,29.72,West,263,4.0,10.0,20,-99.99,,,-99.99,,2013-03-23 03:33:00,
2013-03-22 21:43:00,71.0,28.0,29.72,West,263,4.0,10.0,20,-99.99,,,-99.99,,2013-03-23 03:43:00,
2013-03-22 21:53:00,71.0,29.0,29.73,WSW,250,5.0,14.0,21,-99.99,,,-99.99,,2013-03-23 03:53:00,
2013-03-22 22:02:00,71.0,28.0,29.74,WSW,253,9.0,16.0,20,-99.99,,,-99.99,,2013-03-23 04:02:00,
2013-03-22 22:12:00,71.0,28.0,29.74,WSW,253,9.0,16.0,20,-99.99,,,-99.99,,2013-03-23 04:12:00,
2013-03-22 22:23:00,70.0,29.0,29.75,West,276,6.0,11.0,22,-99.99,,,-99.99,,2013-03-23 04:23:00,
2013-03-22 22:32:00,69.0,29.0,29.76,West,260,6.0,15.0,22,-99.99,,,-99.99,,2013-03-23 04:32:00,
2013-03-22 22:43:00,69.0,29.0,29.76,West,260,6.0,15.0,22,-99.99,,,-99.99,,2013-03-23 04:43:00,
2013-03-22 22:53:00,69.0,29.0,29.77,WSW,255,5.0,11.0,22,-99.99,,,-99.99,,2013-03-23 04:53:00,
2013-03-22 23:02:00,68.0,28.0,29.77,WSW,238,5.0,9.0,22,-99.99,,,-99.99,,2013-03-23 05:02:00,
2013-03-22 23:12:00,68.0,28.0,29.77,WSW,238,5.0,9.0,22,-99.99,,,-99.99,,2013-03-23 05:12:00,
2013-03-22 23:22:00,68.0,28.0,29.78,West,259,3.0,9.0,22,-99.99,,,-99.99,,2013-03-23 05:22:00,
2013-03-22 23:32:00,67.0,28.0,29.79,WSW,253,3.0,8.0,23,-99.99,,,-99.99,,2013-03-23 05:32:00,
2013-03-22 23:42:00,67.0,28.0,29.79,WSW,253,3.0,8.0,23,-99.99,,,-99.99,,2013-03-23 05:42:00,
2013-03-22 23:52:00,67.0,27.0,29.79,SW,229,5.0,9.0,22,-99.99,,,-99.99,,2013-03-23 05:52:00,